Terminal Aerodrome Forecast
Issued by NWS

Home | Current Version | Previous Version | Graphics & Text | Print | Product List | Glossary On
Versions: 1 2 3 4 5 6 7 8 9 10 11 12 13 14 15 16 17 18 19 20 21 22 23 24 25 26 27 28
000
FTUS43 KLSX 050400 AAA
TAFSUS
TAF AMD
KSUS 050429Z 0504/0524 01006KT P6SM BKN120 OVC200
     FM050600 VRB04KT P6SM SCT120 OVC200
     FM051200 33008KT P6SM SKC=

USA.gov is the U.S. government's official web portal to all federal, state and local government web resources and services.